Weather at Sudbury Airport

Public forecast

Using degrees Fahrenheit for public forecast. Weather courtesy of forecast.io.

Closest aviation weather report (METAR) to Sudbury Airport

Closest report is Laurence G Hanscom Field, 9.5 nm (17.6 km) NE. Retrieved 2020/09/21 00:51 UTC (58 minutes ago):

KBED 210051Z 00000KT 10SM CLR 06/02 A3055 RMK AO2 SLP360 T00610022

Closest aviation forecast (TAF) to Sudbury Airport

Closest forecast is Laurence G Hanscom Field, 9.5 nm (17.6 km) NE. Retrieved 2020-09-21 00:27 UTC (1 hour ago):

TAF KBED 202324Z 2100/2124 08004KT P6SM SKC FM210200 00000KT P6SM SKC FM211500 04012KT P6SM SKC FM212200 06006KT P6SM SKC